Flight Track Log - Related Links

Times and Time Zones

All times are in EDT time to prevent confusion due to time zone crossing. See the QJE1798 flight status page for this flight to view local times or setup timezone preferences in your user account.

Time Position Orientation Groundspeed Altitude Reporting Facility
EDT Latitude Longitude Course Direction KTS MPH feet Rate Location/Type
Fri 06:25:09 PM -27.4068 153.1167 210° Southwest 155 178 1,100  Level Aus ATC (RADAR)
Fri 06:25:44 PM -27.4310 153.1011 210° Southwest 171 197 2,000 1,733 Climbing Aus ATC (RADAR)
Fri 06:26:39 PM -27.4809 153.0735 206° Southwest 219 252 3,700 2,035 Climbing Aus ATC (RADAR)
Fri 06:27:39 PM -27.4914 152.9965 261° West 269 310 5,900 1,920 Climbing Aus ATC (RADAR)
Fri 06:28:19 PM -27.4805 152.9352 281° West 289 333 6,900 1,360 Climbing Aus ATC (RADAR)
Fri 06:28:54 PM -27.4704 152.8755 281° West 322 371 7,600 1,457 Climbing Aus ATC (RADAR)
Fri 06:29:29 PM -27.4551 152.8117 285° West 351 404 8,600 1,938 Climbing Aus ATC (RADAR)
Fri 06:29:59 PM -27.4426 152.7561 284° West 356 410 9,700 2,031 Climbing Aus ATC (RADAR)
Fri 06:30:34 PM -27.4270 152.6903 285° West 363 418 10,800 2,127 Climbing Aus ATC (RADAR)
Fri 06:31:18 PM -27.4063 152.6036 285° West 374 430 12,500 2,430 Climbing Aus ATC (RADAR)
Fri 06:31:53 PM -27.3914 152.5353 284° West 374 430 14,000 2,486 Climbing Aus ATC (RADAR)
Fri 06:32:28 PM -27.3752 152.4674 285° West 373 429 15,400 2,400 Climbing Aus ATC (RADAR)
Fri 06:33:08 PM -27.3575 152.3903 284° West 371 427 17,000 2,040 Climbing Aus ATC (RADAR)
Fri 06:34:08 PM -27.3298 152.2756 285° West 369 425 18,800 1,771 Climbing Aus ATC (RADAR)
Fri 06:34:53 PM -27.3079 152.1873 286° West 380 437 20,100 1,875 Climbing Aus ATC (RADAR)
Fri 06:35:28 PM -27.2918 152.1193 285° West 378 435 21,300 2,492 Climbing Aus ATC (RADAR)
Fri 06:35:58 PM -27.2787 152.0629 285° West 364 419 22,800 1,725 Climbing Aus ATC (RADAR)
Fri 06:36:48 PM -27.2560 151.9724 286° West 357 411 23,600 918 Climbing Aus ATC (RADAR)
Fri 06:37:23 PM -27.2404 151.9074 285° West 362 417 24,100 857 Climbing Aus ATC (RADAR)
Fri 06:37:58 PM -27.2242 151.8417 285° West 368 423 24,600 831 Climbing Aus ATC (RADAR)
Fri 06:38:28 PM -27.2106 151.7852 285° West 369 425 25,000 831 Climbing Aus ATC (RADAR)
Fri 06:39:03 PM -27.1957 151.7186 284° West 364 419 25,500 771 Climbing Aus ATC (RADAR)
Fri 06:39:38 PM -27.1788 151.6514 286° West 374 430 25,900 923 Climbing Aus ATC (RADAR)
Fri 06:40:08 PM -27.1652 151.5940 285° West 375 432 26,500 1,108 Climbing Aus ATC (RADAR)
Fri 06:40:43 PM -27.1488 151.5281 286° West 367 422 27,100 1,054 Climbing Aus ATC (RADAR)
Fri 06:41:22 PM -27.1301 151.4528 286° West 367 422 27,800 870 Climbing Aus ATC (RADAR)
Fri 06:41:52 PM -27.1165 151.3962 285° West 367 422 28,100 646 Climbing Aus ATC (RADAR)
Fri 06:42:27 PM -27.0998 151.3311 286° West 362 417 28,500 738 Climbing Aus ATC (RADAR)
Fri 06:42:57 PM -27.0862 151.2743 285° West 366 421 28,900 831 Climbing Aus ATC (RADAR)
Fri 06:43:32 PM -27.0696 151.2086 286° West 367 422 29,400 831 Climbing Aus ATC (RADAR)
Fri 06:44:02 PM -27.0557 151.1526 286° West 362 417 29,800 831 Climbing Aus ATC (RADAR)
Fri 06:44:37 PM -27.0395 151.0869 285° West 364 419 30,300 343 Climbing Aus ATC (RADAR)
Fri 06:45:12 PM -27.0230 151.0216 286° West 366 421 30,200 -86 Descending Aus ATC (RADAR)
Fri 06:45:47 PM -27.0070 150.9564 285° West 360 414 30,200  Level Aus ATC (RADAR)
Fri 06:46:47 PM -26.9787 150.8434 286° West 371 427 30,200  Level Aus ATC (RADAR)
Fri 06:47:37 PM -26.9550 150.7498 286° West 369 425 30,200  Level Aus ATC (RADAR)
Fri 06:48:12 PM -26.9388 150.6841 285° West 370 426 30,200  Level Aus ATC (RADAR)
Fri 06:48:52 PM -26.9200 150.6093 286° West 370 426 30,200  Level Aus ATC (RADAR)
Fri 06:49:27 PM -26.9034 150.5439 286° West 370 426 30,200  Level Aus ATC (RADAR)
Fri 06:50:02 PM -26.8870 150.4779 286° West 371 427 30,200  Level Aus ATC (RADAR)
Fri 06:50:37 PM -26.8699 150.4128 286° West 370 426 30,200  Level Aus ATC (RADAR)
Fri 06:51:11 PM -26.8565 150.3465 283° West 369 425 30,200  Level Aus ATC (RADAR)
Fri 06:51:41 PM -26.8452 150.2894 282° West 367 422 30,200  Level Aus ATC (RADAR)
Fri 06:52:16 PM -26.8320 150.2227 283° West 372 428 30,200  Level Aus ATC (RADAR)
Fri 06:52:51 PM -26.8193 150.1569 282° West 366 421 30,200  Level Aus ATC (RADAR)
Fri 06:53:26 PM -26.8067 150.0913 282° West 364 419 30,200  Level Aus ATC (RADAR)
Fri 06:53:56 PM -26.7951 150.0342 283° West 370 426 30,200  Level Aus ATC (RADAR)
Fri 06:54:36 PM -26.7805 149.9585 282° West 370 426 30,200  Level Aus ATC (RADAR)
Fri 06:55:26 PM -26.7614 149.8634 283° West 372 428 30,200  Level Aus ATC (RADAR)
Fri 06:56:41 PM -26.7330 149.7214 283° West 372 428 30,200  Level Aus ATC (RADAR)
Fri 06:57:26 PM -26.7164 149.6362 282° West 372 428 30,200  Level Aus ATC (RADAR)
Fri 06:58:01 PM -26.7029 149.5700 283° West 373 429 30,200  Level Aus ATC (RADAR)
Fri 06:58:41 PM -26.6878 149.4943 283° West 373 429 30,200  Level Aus ATC (RADAR)
Fri 06:59:16 PM -26.6750 149.4283 282° West 373 429 30,200  Level Aus ATC (RADAR)
Fri 06:59:46 PM -26.6633 149.3711 283° West 375 432 30,200  Level Aus ATC (RADAR)
Fri 07:00:21 PM -26.6498 149.3051 283° West 372 428 30,200  Level Aus ATC (RADAR)
Fri 07:00:56 PM -26.6359 149.2385 283° West 374 430 30,200  Level Aus ATC (RADAR)
Fri 07:02:06 PM -26.6096 149.1054 282° West 376 433 30,200  Level Aus ATC (RADAR)
Fri 07:03:06 PM -26.5863 148.9913 283° West 375 432 30,200  Level Aus ATC (RADAR)
Fri 07:03:46 PM -26.5708 148.9152 283° West 376 433 30,200  Level Aus ATC (RADAR)
Fri 07:04:20 PM -26.5571 148.8489 283° West 376 433 30,200  Level Aus ATC (RADAR)
Fri 07:04:55 PM -26.5435 148.7824 283° West 375 432 30,200  Level Aus ATC (RADAR)
Fri 07:05:30 PM -26.5341 148.7141 279° West 382 440 30,200  Level Aus ATC (RADAR)
Fri 07:06:06 PM -26.5249 148.6464 279° West 378 435 30,200  Level Aus ATC (RADAR)
Fri 07:06:55 PM -26.5128 148.5504 278° West 375 432 30,200  Level Aus ATC (RADAR)
Fri 07:07:55 PM -26.4970 148.4355 279° West 372 428 30,200  Level Aus ATC (RADAR)
Fri 07:08:35 PM -26.4885 148.3605 277° West 365 420 30,200  Level Aus ATC (RADAR)
Fri 07:09:10 PM -26.4788 148.2926 279° West 377 434 30,200  Level Aus ATC (RADAR)
Fri 07:09:45 PM -26.4700 148.2258 278° West 373 429 30,200  Level Aus ATC (RADAR)
Fri 07:10:20 PM -26.4611 148.1587 278° West 374 430 30,200  Level Aus ATC (RADAR)
Fri 07:10:55 PM -26.4520 148.0916 279° West 374 430 30,200  Level Aus ATC (RADAR)
Fri 07:11:45 PM -26.4392 147.9953 278° West 376 433 30,200  Level Aus ATC (RADAR)
Fri 07:12:20 PM -26.4299 147.9287 279° West 373 429 30,200 86 Level Aus ATC (RADAR)
Fri 07:12:55 PM -26.4202 147.8615 279° West 375 432 30,300 80 Climbing Aus ATC (RADAR)
Fri 07:13:35 PM -26.4103 147.7849 278° West 375 432 30,300  Level Aus ATC (RADAR)
Fri 07:14:10 PM -26.4010 147.7175 279° West 376 433 30,300  Level Aus ATC (RADAR)
Fri 07:14:40 PM -26.3931 147.6605 279° West 373 429 30,300  Level Aus ATC (RADAR)
Fri 07:15:25 PM -26.3812 147.5751 279° West 371 427 30,300  Level Aus ATC (RADAR)
Fri 07:15:59 PM -26.3715 147.5082 279° West 374 430 30,300  Level Aus ATC (RADAR)
Fri 07:17:14 PM -26.3508 147.3635 279° West 381 438 30,300  Level Aus ATC (RADAR)
Fri 07:17:44 PM -26.3414 147.3045 280° West 385 443 30,300  Level Aus ATC (RADAR)
Fri 07:18:39 PM -26.3245 147.1980 280° West 382 440 30,300  Level Aus ATC (RADAR)
Fri 07:21:48 PM -26.2696 146.8087 279° West 32,000 540 Climbing Aus ATC (Calculated)
Fri 07:23:00 PM -26.2504 146.6739 279° West  Level FlightAware Approximate
Fri 07:24:00 PM -26.2343 146.5617 279° West  Level FlightAware Approximate
Fri 07:25:00 PM -26.2182 146.4495 279° West  Level FlightAware Approximate
Fri 07:26:00 PM -26.2019 146.3373 279° West  Level FlightAware Approximate
Fri 07:27:00 PM -26.1856 146.2252 279° West  Level FlightAware Approximate
Fri 07:28:00 PM -26.1691 146.1131 279° West  Level FlightAware Approximate
Fri 07:29:00 PM -26.1526 146.0010 279° West  Level FlightAware Approximate
Fri 07:30:00 PM -26.1360 145.8889 279° West  Level FlightAware Approximate
Fri 07:31:00 PM -26.1193 145.7769 279° West  Level FlightAware Approximate
Fri 07:32:00 PM -26.1025 145.6649 279° West  Level FlightAware Approximate
Fri 07:33:00 PM -26.0856 145.5530 280° West  Level FlightAware Approximate
Fri 07:34:00 PM -26.0687 145.4410 280° West  Level FlightAware Approximate
Fri 07:35:00 PM -26.0516 145.3291 280° West  Level FlightAware Approximate
Fri 07:36:00 PM -26.0345 145.2173 280° West  Level FlightAware Approximate
Fri 07:37:00 PM -26.0173 145.1055 280° West  Level FlightAware Approximate
Fri 07:38:00 PM -26.0000 144.9937 280° West  Level FlightAware Approximate
Fri 07:39:00 PM -25.9826 144.8819 280° West  Level FlightAware Approximate
Fri 07:39:00 PM -25.9750 144.8530 278° West 32,000  Level Aus ATC (Calculated)
Fri 07:40:00 PM -25.9613 144.7407 278° West  Level FlightAware Approximate
Fri 07:41:00 PM -25.9750 144.8530 98° East  Level FlightAware Approximate
Fri 07:42:00 PM -25.9613 144.7407 278° West  Level FlightAware Approximate
Fri 07:42:09 PM -25.9288 144.5622 101° East 32,000  Level Aus ATC (Calculated)
Fri 07:44:00 PM -25.9583 144.7274 280° West  Level FlightAware Approximate
Fri 07:44:07 PM -25.8944 144.3479 280° West 32,000  Level Aus ATC (Calculated)
Fri 07:46:00 PM -25.8603 144.1378 280° West  Level FlightAware Approximate
Fri 07:46:15 PM -25.8454 144.0467 280° West 32,000  Level Aus ATC (Calculated)
Fri 07:48:00 PM -25.8134 143.8517 280° West  Level FlightAware Approximate
Fri 07:49:00 PM -25.7950 143.7403 280° West  Level FlightAware Approximate
Fri 07:50:00 PM -25.7764 143.6290 280° West  Level FlightAware Approximate
Fri 07:50:01 PM -25.7703 143.5922 200° South 32,000  Level Aus ATC (Calculated)
Fri 07:50:01 PM -25.7703 143.5922 281° West 32,000  Level Aus ATC (Calculated)
Fri 07:52:00 PM -25.7332 143.3715 281° West  Level FlightAware Approximate
Fri 07:53:00 PM -25.7144 143.2603 281° West  Level FlightAware Approximate
Fri 07:54:00 PM -25.6956 143.1491 281° West  Level FlightAware Approximate
Fri 07:55:00 PM -25.6766 143.0379 281° West  Level FlightAware Approximate
Fri 07:56:00 PM -25.6576 142.9268 281° West  Level FlightAware Approximate
Fri 07:57:00 PM -25.6384 142.8158 281° West  Level FlightAware Approximate
Fri 07:58:00 PM -25.6192 142.7047 281° West  Level FlightAware Approximate
Fri 07:59:00 PM -25.5999 142.5937 281° West  Level FlightAware Approximate
Fri 08:00:00 PM -25.5805 142.4827 281° West  Level FlightAware Approximate
Fri 08:01:00 PM -25.5611 142.3718 281° West  Level FlightAware Approximate
Fri 08:01:02 PM -25.5469 142.2916 281° West 32,000  Level Aus ATC (Calculated)
Fri 08:03:00 PM -25.5083 142.0736 281° West  Level FlightAware Approximate
Fri 08:04:00 PM -25.4885 141.9628 281° West  Level FlightAware Approximate
Fri 08:05:00 PM -25.4686 141.8520 281° West  Level FlightAware Approximate
Fri 08:06:00 PM -25.4487 141.7413 281° West  Level FlightAware Approximate
Fri 08:07:00 PM -25.4286 141.6306 281° West  Level FlightAware Approximate
Fri 08:08:00 PM -25.4085 141.5199 281° West  Level FlightAware Approximate
Fri 08:08:41 PM -25.3928 141.4336 281° West 32,000  Level Aus ATC (Calculated)
Fri 08:09:00 PM -25.3883 141.4093 281° West  Level FlightAware Approximate
Fri 08:10:00 PM -25.3661 141.2880 281° West  Level FlightAware Approximate
Fri 08:11:00 PM -25.3457 141.1775 281° West  Level FlightAware Approximate
Fri 08:11:00 PM -25.3403 141.1481 282° West 32,000  Level Aus ATC (Calculated)
Fri 08:11:44 PM -25.3200 141.0389 50° Northeast 32,000  Level Aus ATC (Calculated)
Fri 08:12:00 PM -25.2383 141.1481 North  Level FlightAware Approximate
Fri 08:13:00 PM -25.3212 141.0457 282° West  Level FlightAware Approximate
Fri 08:13:23 PM -25.2893 140.8752 282° West 32,000  Level Aus ATC (Calculated)
Fri 08:15:00 PM -25.2558 140.6977 282° West  Level FlightAware Approximate
Fri 08:16:00 PM -25.2351 140.5880 282° West  Level FlightAware Approximate
Fri 08:17:00 PM -25.2142 140.4784 282° West  Level FlightAware Approximate
Fri 08:18:00 PM -25.1932 140.3688 282° West  Level FlightAware Approximate
Fri 08:19:00 PM -25.1722 140.2592 282° West  Level FlightAware Approximate
Fri 08:20:00 PM -25.1511 140.1497 282° West  Level FlightAware Approximate
Fri 08:21:00 PM -25.1299 140.0402 282° West  Level FlightAware Approximate
Fri 08:22:00 PM -25.1086 139.9307 282° West  Level FlightAware Approximate
Fri 08:23:00 PM -25.0872 139.8213 282° West  Level FlightAware Approximate
Fri 08:24:00 PM -25.0658 139.7119 282° West  Level FlightAware Approximate
Fri 08:25:00 PM -25.0443 139.6026 282° West  Level FlightAware Approximate
Fri 08:26:00 PM -25.0227 139.4932 282° West  Level FlightAware Approximate
Fri 08:26:43 PM -24.9836 139.2966 282° West 32,000  Level Aus ATC (Calculated)
Fri 08:28:00 PM -24.9556 139.1565 282° West  Level FlightAware Approximate
Fri 08:28:03 PM -24.9619 139.1880 282° West 32,000  Level Aus ATC (Calculated)
Fri 08:30:00 PM -24.9191 138.9752 282° West  Level FlightAware Approximate
Fri 08:31:00 PM -24.8971 138.8661 283° West  Level FlightAware Approximate
Fri 08:32:00 PM -24.8749 138.7571 283° West  Level FlightAware Approximate
Fri 08:33:00 PM -24.8527 138.6481 283° West  Level FlightAware Approximate
Fri 08:34:00 PM -24.8304 138.5391 283° West  Level FlightAware Approximate
Fri 08:35:00 PM -24.8080 138.4301 283° West  Level FlightAware Approximate
Fri 08:36:00 PM -24.7856 138.3213 283° West  Level FlightAware Approximate
Fri 08:37:00 PM -24.7631 138.2124 283° West  Level FlightAware Approximate
Fri 08:38:00 PM -24.7404 138.1036 283° West  Level FlightAware Approximate
Fri 08:38:11 PM -24.7180 137.9962 283° West 32,000  Level Aus ATC (Calculated)
Fri 08:40:00 PM -24.6766 137.7987 283° West  Level FlightAware Approximate
Fri 08:40:24 PM -24.6613 137.7260 283° West 32,000  Level Aus ATC (Calculated)
Fri 08:42:00 PM -24.6243 137.5512 283° West  Level FlightAware Approximate
Fri 08:42:00 PM -24.6258 137.5581 103° East 32,000  Level Aus ATC (Calculated)
Fri 08:43:00 PM -24.6489 137.6673 103° East  Level FlightAware Approximate
Fri 08:43:24 PM -24.5894 137.3874 283° West 32,000  Level Aus ATC (Calculated)
Fri 08:44:31 PM -24.5651 137.2736 103° East 32,000  Level Aus ATC (Calculated)
Fri 08:46:00 PM -24.5997 137.4355 103° East  Level FlightAware Approximate
Fri 08:46:56 PM -24.5039 136.9894 103° East 32,000  Level Aus ATC (Calculated)
Fri 08:47:00 PM -24.6229 137.5447 103° East  Level FlightAware Approximate
Fri 08:48:00 PM -24.4789 136.8731 283° West  Level Estimated
Fri 08:49:00 PM -24.4549 136.7642 284° West  Level FlightAware Approximate
Fri 08:50:00 PM -24.4311 136.6553 284° West  Level FlightAware Approximate
Fri 08:51:00 PM -24.4549 136.7642 104° East  Level FlightAware Approximate
Fri 08:51:00 PM -24.4147 136.5811 104° East 900  Level Aus ATC (Calculated)
Fri 08:52:00 PM -24.4387 136.6899 104° East  Level FlightAware Approximate
Fri 08:52:27 PM -24.3748 136.4001 180° South 900  Level Aus ATC (Calculated)
Fri 08:52:27 PM -24.3748 136.4001 104° East 900  Level Aus ATC (Calculated)
Fri 08:53:00 PM -24.4625 136.7988 104° East  Level FlightAware Approximate
Fri 08:54:00 PM -24.4120 136.5687 104° East  Level FlightAware Approximate
Fri 08:55:00 PM -24.4134 136.5748 284° West  Level FlightAware Approximate
Fri 08:56:00 PM -24.3894 136.4660 284° West  Level FlightAware Approximate
Fri 08:57:00 PM -24.3653 136.3573 284° West  Level FlightAware Approximate
Fri 08:57:35 PM -24.2739 135.9481 284° West 900  Level Aus ATC (Calculated)
Fri 08:59:00 PM -24.2392 135.7943 284° West  Level FlightAware Approximate
Fri 09:00:00 PM -24.2146 135.6858 284° West  Level FlightAware Approximate
Fri 09:01:00 PM -24.1900 135.5774 284° West  Level FlightAware Approximate
Fri 09:02:00 PM -24.1653 135.4689 284° West  Level FlightAware Approximate
Fri 09:03:00 PM -24.1405 135.3606 284° West  Level FlightAware Approximate
Fri 09:04:00 PM -24.1156 135.2522 284° West  Level FlightAware Approximate
Fri 09:04:21 PM -24.1097 135.2264 360° North 900  Level Aus ATC (Calculated)
Fri 09:04:43 PM -24.1097 135.2264 284° West 900  Level Aus ATC (Calculated)
Fri 09:06:00 PM -24.0776 135.0874 284° West  Level FlightAware Approximate
Fri 09:06:22 PM -24.0681 135.0463 284° West 900  Level Aus ATC (Calculated)
Fri 09:08:00 PM -24.0271 134.8695 284° West  Level FlightAware Approximate
Fri 09:08:53 PM -24.0053 134.7763 284° West 900  Level Aus ATC (Calculated)
Fri 09:09:00 PM -24.0019 134.7614 284° West  Level FlightAware Approximate
Fri 09:09:37 PM -23.9843 134.6863 284° West 900  Level Aus ATC (Calculated)
Fri 09:10:00 PM -23.9771 134.6556 284° West  Level FlightAware Approximate
Fri 09:11:00 PM -23.9492 134.5368 284° West  Level FlightAware Approximate
Fri 09:11:37 PM -23.9421 134.5065 284° West 900  Level Aus ATC (Calculated)
Fri 09:12:00 PM -23.9238 134.4288 284° West  Level FlightAware Approximate
Fri 09:13:00 PM -23.9068 134.3572 284° West  Level FlightAware Approximate
Fri 09:13:37 PM -23.8997 134.3269 285° West 900  Level Aus ATC (Calculated)
Fri 09:14:00 PM -23.8813 134.2492 285° West  Level FlightAware Approximate
Fri 09:14:22 PM -23.8784 134.2371 285° West 900  Level Aus ATC (Calculated)
Fri 09:16:00 PM -23.8364 134.0609 285° West  Level FlightAware Approximate
Fri 09:17:00 PM -23.8106 133.9531 285° West  Level FlightAware Approximate
Fri 09:17:22 PM -23.8142 133.9679 277° West 900  Level Aus ATC (Calculated)
Fri 09:19:00 PM -23.8067 133.9022 285° West  Level Estimated
Fri 09:20:00 PM -23.8067 133.9022 302° West  Level Estimated

Login

Don't have an account? Register now (free) for customized features, flight alerts, and more!